createdAt,value
2023-04-02T00:01:02.419Z,44.13
2023-04-02T00:03:42.460Z,40.30
2023-04-02T00:06:32.965Z,39.80
2023-04-02T00:09:04.728Z,41.90
2023-04-02T00:11:41.308Z,39.42
2023-04-02T00:14:21.831Z,38.63
2023-04-02T00:16:48.647Z,43.17
2023-04-02T00:19:23.236Z,42.47
2023-04-02T00:21:52.269Z,37.10
2023-04-02T00:24:22.053Z,40.42
2023-04-02T00:26:50.815Z,41.03
2023-04-02T00:29:19.341Z,38.20
2023-04-02T00:31:53.928Z,37.08
2023-04-02T00:36:59.484Z,39.08
2023-04-02T00:39:29.836Z,42.20
2023-04-02T00:42:07.781Z,38.45
2023-04-02T00:44:38.652Z,46.17
2023-04-02T00:47:15.680Z,45.25
2023-04-02T00:49:43.141Z,42.72
2023-04-02T00:52:16.507Z,50.78
2023-04-02T00:55:07.944Z,50.63
2023-04-02T00:57:35.069Z,47.13
2023-04-02T01:00:13.946Z,50.60
2023-04-02T01:02:41.506Z,49.63
2023-04-02T01:05:17.670Z,49.67
2023-04-02T01:08:16.877Z,47.95
2023-04-02T01:11:01.671Z,47.28
2023-04-02T01:13:42.306Z,45.17
2023-04-02T01:16:30.506Z,46.47
2023-04-02T01:19:35.618Z,46.45
2023-04-02T01:22:19.443Z,45.75
2023-04-02T01:24:47.356Z,47.67
2023-04-02T01:27:29.519Z,50.85
2023-04-02T01:29:58.659Z,48.80
2023-04-02T01:32:28.599Z,54.22
2023-04-02T01:34:56.195Z,51.80
2023-04-02T01:37:44.959Z,53.08
2023-04-02T01:40:47.025Z,53.85
2023-04-02T01:43:23.208Z,55.45
2023-04-02T01:45:50.251Z,54.97
2023-04-02T01:48:24.792Z,64.38
2023-04-02T01:53:25.135Z,51.90
2023-04-02T01:56:00.803Z,53.30
2023-04-02T01:58:31.744Z,56.15
2023-04-02T02:01:06.011Z,53.13
2023-04-02T02:03:33.818Z,55.80
2023-04-02T02:06:02.138Z,53.40
2023-04-02T02:08:31.417Z,56.15
2023-04-02T02:10:58.511Z,51.13
2023-04-02T02:13:25.459Z,48.30
2023-04-02T02:15:52.348Z,45.72
2023-04-02T02:18:23.481Z,46.13
2023-04-02T02:20:52.304Z,54.67
2023-04-02T02:23:20.812Z,46.33
2023-04-02T02:25:48.006Z,44.08
2023-04-02T02:28:17.562Z,45.80
2023-04-02T02:30:49.469Z,43.08
2023-04-02T02:33:28.938Z,46.80
2023-04-02T02:36:01.124Z,48.72
2023-04-02T02:38:48.993Z,45.40
2023-04-02T02:41:26.567Z,50.03
2023-04-02T02:44:29.763Z,49.78
2023-04-02T02:47:01.580Z,51.72
2023-04-02T02:49:36.065Z,57.72
2023-04-02T02:52:08.451Z,52.65
2023-04-02T02:54:43.215Z,53.42
2023-04-02T02:57:14.284Z,55.00
2023-04-02T02:59:42.419Z,55.45
2023-04-02T03:02:09.108Z,53.95
2023-04-02T03:04:36.169Z,57.75
2023-04-02T03:07:05.957Z,55.13
2023-04-02T03:10:09.939Z,55.97
2023-04-02T03:12:41.651Z,54.97
2023-04-02T03:15:16.578Z,53.92
2023-04-02T03:17:49.709Z,55.58
2023-04-02T03:20:36.469Z,53.92
2023-04-02T03:23:13.616Z,53.47
2023-04-02T03:25:46.342Z,51.10
2023-04-02T03:28:30.392Z,48.85
2023-04-02T03:31:21.856Z,48.03
2023-04-02T03:33:55.787Z,48.55
2023-04-02T03:36:43.599Z,48.55
2023-04-02T03:39:25.334Z,47.40
2023-04-02T03:42:15.698Z,48.05
2023-04-02T03:44:55.396Z,47.78
2023-04-02T03:47:24.816Z,48.55
2023-04-02T03:50:01.425Z,47.40
2023-04-02T03:52:30.051Z,48.42
2023-04-02T03:54:59.352Z,47.30
2023-04-02T03:57:42.764Z,49.05
2023-04-02T04:00:21.280Z,47.10
2023-04-02T04:02:52.826Z,46.85
2023-04-02T04:05:32.019Z,46.95
2023-04-02T04:08:03.503Z,46.38
2023-04-02T04:10:31.174Z,47.25
2023-04-02T04:13:07.095Z,49.65
2023-04-02T04:15:39.728Z,49.22
2023-04-02T04:18:43.047Z,50.00
2023-04-02T04:21:29.824Z,47.08
2023-04-02T04:24:03.732Z,48.53
2023-04-02T04:26:53.586Z,52.38
2023-04-02T04:29:40.782Z,50.35
2023-04-02T04:32:27.131Z,51.13
2023-04-02T04:35:01.136Z,50.78
2023-04-02T04:37:35.223Z,50.13
2023-04-02T04:40:17.488Z,49.10
2023-04-02T04:42:45.767Z,48.85
2023-04-02T04:45:43.460Z,49.65
2023-04-02T04:48:23.081Z,49.25
2023-04-02T04:51:01.918Z,48.95
2023-04-02T04:53:30.309Z,49.13
2023-04-02T04:56:09.165Z,50.45
2023-04-02T04:58:49.729Z,49.88
2023-04-02T05:01:28.549Z,50.83
2023-04-02T05:04:00.072Z,48.17
2023-04-02T05:06:43.782Z,48.95
2023-04-02T05:09:41.419Z,47.78
2023-04-02T05:12:35.886Z,48.80
2023-04-02T05:15:16.861Z,49.87
2023-04-02T05:18:10.706Z,51.28
2023-04-02T05:20:53.557Z,49.95
2023-04-02T05:23:27.100Z,51.72
2023-04-02T05:26:16.817Z,53.47
2023-04-02T05:28:51.777Z,52.33
2023-04-02T05:31:29.747Z,54.45
2023-04-02T05:33:57.142Z,55.28
2023-04-02T05:36:27.019Z,58.03
2023-04-02T05:38:56.391Z,53.97
2023-04-02T05:41:36.960Z,53.50
2023-04-02T05:44:30.182Z,53.03
2023-04-02T05:47:12.499Z,52.10
2023-04-02T05:49:39.320Z,54.05
2023-04-02T05:52:12.300Z,50.50
2023-04-02T05:54:47.496Z,49.53
2023-04-02T05:57:20.508Z,48.55
2023-04-02T05:59:53.568Z,47.38
2023-04-02T06:02:31.268Z,42.25
2023-04-02T06:05:04.296Z,39.63
2023-04-02T06:08:03.393Z,36.85
2023-04-02T06:10:34.157Z,35.80
2023-04-02T06:13:05.959Z,35.17
2023-04-02T06:15:35.109Z,33.15
2023-04-02T06:18:16.872Z,32.80
2023-04-02T06:20:43.673Z,35.05
2023-04-02T06:23:32.833Z,35.45
2023-04-02T06:26:04.444Z,32.20
2023-04-02T06:29:11.057Z,30.40
2023-04-02T06:31:50.669Z,29.23
2023-04-02T06:34:23.328Z,28.95
2023-04-02T06:36:51.944Z,27.02
2023-04-02T06:39:23.756Z,28.55
2023-04-02T06:42:07.632Z,29.83
2023-04-02T06:44:38.467Z,27.23
2023-04-02T06:47:25.395Z,28.50
2023-04-02T06:50:12.639Z,28.90
2023-04-02T06:52:58.850Z,28.55
2023-04-02T06:56:03.731Z,27.30
2023-04-02T06:58:30.635Z,28.05
2023-04-02T07:00:57.705Z,28.50
2023-04-02T07:03:27.612Z,30.73
2023-04-02T07:05:55.060Z,29.27
2023-04-02T07:08:22.144Z,31.92
2023-04-02T07:10:48.942Z,31.20
2023-04-02T07:13:17.613Z,31.80
2023-04-02T07:15:50.219Z,29.85
2023-04-02T07:18:27.658Z,31.80
2023-04-02T07:20:54.755Z,35.00
2023-04-02T07:23:21.524Z,35.95
2023-04-02T07:25:50.516Z,36.58
2023-04-02T07:28:17.465Z,38.70
2023-04-02T07:30:45.516Z,40.17
2023-04-02T07:33:21.057Z,40.42
2023-04-02T07:35:48.981Z,31.05
2023-04-02T07:38:16.120Z,36.40
2023-04-02T07:40:42.853Z,34.60
2023-04-02T07:43:09.703Z,36.40
2023-04-02T07:45:36.611Z,35.47
2023-04-02T07:48:11.463Z,35.58
2023-04-02T07:50:38.543Z,34.75
2023-04-02T07:53:07.119Z,36.38
2023-04-02T07:55:33.943Z,37.35
2023-04-02T07:58:00.792Z,38.85
2023-04-02T08:00:28.996Z,41.72
2023-04-02T08:02:56.288Z,37.65
2023-04-02T08:05:23.372Z,33.42
2023-04-02T08:07:54.887Z,34.97
2023-04-02T08:10:21.833Z,31.98
2023-04-02T08:12:49.599Z,33.25
2023-04-02T08:15:16.932Z,31.63
2023-04-02T08:17:44.402Z,29.05
2023-04-02T08:20:22.321Z,26.13
2023-04-02T08:22:50.091Z,26.58
2023-04-02T08:25:16.889Z,27.83
2023-04-02T08:27:46.468Z,27.75
2023-04-02T08:30:13.835Z,24.45
2023-04-02T08:32:41.534Z,24.38
2023-04-02T08:35:11.056Z,25.95
2023-04-02T08:37:37.897Z,22.45
2023-04-02T08:40:07.258Z,21.73
2023-04-02T08:42:39.717Z,21.75
2023-04-02T08:45:25.049Z,20.42
2023-04-02T08:47:56.255Z,19.75
2023-04-02T08:50:31.069Z,20.65
2023-04-02T08:53:00.574Z,19.50
2023-04-02T08:55:35.026Z,19.42
2023-04-02T08:58:20.354Z,18.33
2023-04-02T09:00:53.612Z,18.63
2023-04-02T09:03:29.830Z,18.60
2023-04-02T09:05:57.652Z,17.73
2023-04-02T09:08:27.096Z,19.05
2023-04-02T09:11:02.320Z,17.73
2023-04-02T09:13:33.048Z,19.35
2023-04-02T09:16:11.780Z,17.52
2023-04-02T09:18:39.357Z,18.48
2023-04-02T09:21:21.156Z,19.02
2023-04-02T09:23:48.906Z,16.75
2023-04-02T09:26:30.831Z,17.05
2023-04-02T09:29:12.496Z,16.38
2023-04-02T09:31:43.830Z,16.33
2023-04-02T09:34:33.712Z,16.90
2023-04-02T09:37:18.494Z,17.58
2023-04-02T09:42:35.101Z,16.10
2023-04-02T09:45:18.067Z,18.70
2023-04-02T09:47:44.748Z,17.30
2023-04-02T09:50:34.833Z,16.65
2023-04-02T09:53:31.356Z,18.52
2023-04-02T09:56:24.383Z,18.08
2023-04-02T09:59:12.464Z,18.55
2023-04-02T10:01:57.912Z,18.55
2023-04-02T10:04:46.887Z,16.83
2023-04-02T10:07:41.354Z,17.25
2023-04-02T10:10:21.106Z,18.25
2023-04-02T10:13:23.068Z,19.13
2023-04-02T10:16:09.931Z,17.85
2023-04-02T10:18:44.448Z,19.65
2023-04-02T10:23:39.959Z,18.02
2023-04-02T10:26:51.173Z,18.00
2023-04-02T10:29:52.807Z,18.60
2023-04-02T10:32:30.691Z,16.92
2023-04-02T10:35:27.355Z,18.17
2023-04-02T10:37:59.790Z,17.45
2023-04-02T10:40:29.571Z,18.33
2023-04-02T10:43:14.646Z,17.40
2023-04-02T10:45:49.222Z,18.50
2023-04-02T10:48:24.766Z,18.83
2023-04-02T10:51:02.523Z,19.25
2023-04-02T10:53:59.173Z,18.35
2023-04-02T10:56:28.532Z,19.95
2023-04-02T10:59:05.494Z,18.35
2023-04-02T11:01:34.782Z,17.67
2023-04-02T11:04:38.184Z,17.15
2023-04-02T11:07:14.599Z,16.85
2023-04-02T11:09:46.098Z,18.52
2023-04-02T11:12:25.909Z,18.13
2023-04-02T11:14:55.882Z,19.52
2023-04-02T11:17:23.438Z,17.60
2023-04-02T11:19:50.171Z,17.50
2023-04-02T11:22:17.622Z,17.42
2023-04-02T11:24:54.817Z,18.60
2023-04-02T11:27:30.755Z,15.50
2023-04-02T11:30:24.119Z,17.52
2023-04-02T11:32:51.270Z,16.80
2023-04-02T11:35:33.215Z,17.88
2023-04-02T11:38:22.540Z,17.08
2023-04-02T11:40:56.828Z,19.90
2023-04-02T11:46:16.636Z,19.42
2023-04-02T11:48:43.710Z,17.13
2023-04-02T11:51:22.829Z,18.52
2023-04-02T11:53:51.623Z,17.77
2023-04-02T11:56:32.656Z,17.63
2023-04-02T11:59:27.122Z,18.92
2023-04-02T12:02:12.817Z,20.90
2023-04-02T12:04:59.638Z,18.58
2023-04-02T12:07:35.264Z,17.33
2023-04-02T12:10:20.306Z,19.35
2023-04-02T12:12:47.181Z,17.98
2023-04-02T12:15:44.681Z,16.77
2023-04-02T12:18:17.492Z,16.75
2023-04-02T12:20:53.006Z,18.80
2023-04-02T12:23:29.626Z,15.93
2023-04-02T12:26:01.754Z,13.90
2023-04-02T12:28:30.024Z,13.73
2023-04-02T12:31:18.735Z,12.23
2023-04-02T12:33:45.862Z,12.23
2023-04-02T12:36:14.207Z,10.52
2023-04-02T12:38:49.956Z,10.73
2023-04-02T12:41:35.961Z,10.85
2023-04-02T12:44:15.560Z,10.43
2023-04-02T12:46:43.536Z,10.60
2023-04-02T12:49:38.809Z,10.32
2023-04-02T12:52:14.769Z,10.07
2023-04-02T12:54:46.660Z,9.60
2023-04-02T12:57:25.836Z,10.05
2023-04-02T12:59:57.392Z,10.50
2023-04-02T13:02:26.985Z,12.13
2023-04-02T13:05:01.937Z,10.90
2023-04-02T13:07:33.668Z,9.20
2023-04-02T13:10:03.519Z,10.00
2023-04-02T13:12:36.346Z,10.20
2023-04-02T13:15:09.127Z,8.35
2023-04-02T13:18:02.550Z,8.27
2023-04-02T13:20:40.100Z,7.40
2023-04-02T13:23:46.159Z,8.50
2023-04-02T13:26:25.895Z,8.20
2023-04-02T13:29:17.005Z,8.25
2023-04-02T13:31:43.901Z,8.23
2023-04-02T13:34:10.654Z,7.70
2023-04-02T13:36:37.507Z,7.72
2023-04-02T13:39:04.962Z,7.72
2023-04-02T13:41:36.560Z,8.05
2023-04-02T13:44:04.096Z,7.53
2023-04-02T13:46:33.121Z,7.82
2023-04-02T13:49:00.153Z,8.00
2023-04-02T13:51:36.140Z,8.00
2023-04-02T13:54:03.924Z,8.10
2023-04-02T13:56:31.157Z,8.20
2023-04-02T13:58:57.763Z,8.18
2023-04-02T14:01:25.336Z,8.32
2023-04-02T14:03:54.138Z,8.10
2023-04-02T14:06:23.736Z,8.00
2023-04-02T14:08:59.616Z,8.00
2023-04-02T14:11:41.335Z,8.30
2023-04-02T14:14:33.834Z,8.48
2023-04-02T14:17:38.232Z,8.05
2023-04-02T14:20:17.355Z,7.82
2023-04-02T14:23:05.621Z,8.05
2023-04-02T14:25:43.340Z,8.25
2023-04-02T14:28:23.754Z,8.77
2023-04-02T14:31:05.514Z,9.13
2023-04-02T14:33:37.824Z,8.55
2023-04-02T14:36:12.900Z,9.40
2023-04-02T14:39:03.023Z,9.75
2023-04-02T14:41:44.489Z,9.90
2023-04-02T14:44:12.023Z,10.27
2023-04-02T14:46:39.573Z,10.48
2023-04-02T14:49:08.952Z,10.75
2023-04-02T14:51:49.961Z,11.77
2023-04-02T14:54:59.165Z,10.05
2023-04-02T14:57:44.668Z,11.30
2023-04-02T15:00:28.839Z,11.50
2023-04-02T15:03:16.681Z,11.25
2023-04-02T15:05:47.996Z,11.23
2023-04-02T15:09:02.083Z,11.25
2023-04-02T15:11:41.866Z,11.48
2023-04-02T15:14:26.210Z,11.00
2023-04-02T15:16:53.015Z,11.15
2023-04-02T15:19:20.023Z,11.60
2023-04-02T15:22:11.120Z,10.68
2023-04-02T15:25:03.120Z,11.35
2023-04-02T15:28:05.615Z,12.70
2023-04-02T15:30:45.333Z,13.00
2023-04-02T15:33:30.270Z,13.23
2023-04-02T15:36:17.787Z,14.43
2023-04-02T15:38:49.441Z,15.43
2023-04-02T15:41:26.267Z,19.30
2023-04-02T15:44:15.921Z,16.15
2023-04-02T15:47:06.229Z,13.95
2023-04-02T15:49:57.442Z,12.63
2023-04-02T15:52:58.766Z,15.45
2023-04-02T15:55:46.049Z,16.08
2023-04-02T15:58:39.434Z,17.48
2023-04-02T16:01:25.820Z,18.38
2023-04-02T16:04:19.925Z,15.68
2023-04-02T16:07:05.941Z,12.90
2023-04-02T16:09:48.595Z,13.13
2023-04-02T16:12:20.495Z,17.88
2023-04-02T16:14:49.476Z,22.05
2023-04-02T16:17:32.616Z,26.35
2023-04-02T16:20:15.080Z,77.70
2023-04-02T16:22:57.294Z,127.07
2023-04-02T16:25:31.469Z,134.07
2023-04-02T16:28:35.811Z,102.97
2023-04-02T16:31:20.886Z,98.55
2023-04-02T16:34:15.469Z,79.95
2023-04-02T16:37:19.314Z,53.08
2023-04-02T16:40:07.499Z,49.90
2023-04-02T16:42:49.038Z,51.78
2023-04-02T16:45:34.651Z,54.30
2023-04-02T16:48:04.128Z,37.90
2023-04-02T16:51:15.671Z,29.02
2023-04-02T16:54:06.485Z,24.50
2023-04-02T16:56:59.068Z,24.10
2023-04-02T16:59:45.839Z,25.20
2023-04-02T17:02:21.565Z,25.08
2023-04-02T17:04:51.361Z,24.80
2023-04-02T17:07:27.314Z,27.00
2023-04-02T17:10:03.180Z,33.83
2023-04-02T17:12:39.807Z,42.83
2023-04-02T17:15:27.852Z,54.15
2023-04-02T17:18:00.832Z,58.58
2023-04-02T17:20:28.379Z,81.35
2023-04-02T17:22:56.127Z,92.30
2023-04-02T17:25:26.899Z,106.28
2023-04-02T17:27:55.977Z,112.60
2023-04-02T17:30:42.267Z,144.00
2023-04-02T17:33:15.347Z,155.57
2023-04-02T17:36:09.615Z,139.13
2023-04-02T17:39:08.413Z,81.23
2023-04-02T17:41:49.546Z,74.20
2023-04-02T17:44:26.822Z,76.68
2023-04-02T17:47:15.056Z,81.22
2023-04-02T17:49:53.190Z,65.20
2023-04-02T17:52:37.962Z,47.95
2023-04-02T17:55:07.205Z,51.17
2023-04-02T17:58:05.193Z,48.30
2023-04-02T18:01:00.942Z,46.22
2023-04-02T18:04:04.236Z,45.45
2023-04-02T18:06:37.933Z,41.85
2023-04-02T18:09:22.897Z,48.27
2023-04-02T18:14:33.411Z,25.75
2023-04-02T18:17:24.641Z,26.00
2023-04-02T18:20:17.742Z,21.67
2023-04-02T18:23:00.544Z,22.50
2023-04-02T18:26:16.444Z,23.60
2023-04-02T18:28:45.994Z,22.27
2023-04-02T18:31:28.226Z,21.30
2023-04-02T18:34:19.828Z,20.55
2023-04-02T18:37:01.492Z,19.13
2023-04-02T18:39:45.398Z,19.23
2023-04-02T18:42:43.608Z,19.55
2023-04-02T18:45:24.040Z,18.75
2023-04-02T18:47:59.471Z,19.83
2023-04-02T18:50:28.900Z,18.38
2023-04-02T18:52:55.623Z,19.17
2023-04-02T18:55:32.915Z,18.50
2023-04-02T18:58:22.854Z,18.63
2023-04-02T19:00:50.614Z,17.70
2023-04-02T19:03:26.143Z,18.80
2023-04-02T19:06:03.002Z,19.38
2023-04-02T19:08:38.507Z,18.33
2023-04-02T19:11:12.038Z,18.70
2023-04-02T19:13:38.781Z,20.25
2023-04-02T19:16:17.276Z,19.13
2023-04-02T19:19:13.132Z,20.52
2023-04-02T19:21:53.864Z,19.58
2023-04-02T19:24:42.484Z,20.17
2023-04-02T19:27:33.901Z,21.92
2023-04-02T19:30:15.797Z,25.45
2023-04-02T19:33:06.537Z,24.30
2023-04-02T19:35:47.979Z,27.38
2023-04-02T19:38:20.463Z,28.08
2023-04-02T19:40:59.007Z,26.30
2023-04-02T19:43:25.868Z,27.20
2023-04-02T19:45:54.448Z,25.95
2023-04-02T19:48:32.401Z,26.60
2023-04-02T19:50:59.094Z,29.35
2023-04-02T19:53:25.640Z,32.55
2023-04-02T19:55:52.409Z,34.20
2023-04-02T19:58:29.130Z,35.45
2023-04-02T20:00:56.200Z,35.50
2023-04-02T20:03:23.390Z,38.75
2023-04-02T20:05:50.722Z,38.90
2023-04-02T20:08:17.652Z,40.85
2023-04-02T20:10:44.991Z,39.42
2023-04-02T20:13:11.858Z,43.53
2023-04-02T20:15:39.920Z,45.25
2023-04-02T20:18:07.706Z,46.42
2023-04-02T20:20:34.505Z,46.20
2023-04-02T20:23:01.370Z,46.67
2023-04-02T20:25:27.928Z,46.75
2023-04-02T20:27:54.541Z,46.75
2023-04-02T20:30:21.104Z,46.65
2023-04-02T20:32:47.751Z,50.28
2023-04-02T20:35:14.423Z,47.60
2023-04-02T20:37:41.970Z,47.40
2023-04-02T20:40:10.012Z,45.00
2023-04-02T20:42:36.795Z,44.97
2023-04-02T20:45:05.218Z,46.53
2023-04-02T20:47:32.198Z,47.65
2023-04-02T20:49:58.753Z,48.15
2023-04-02T20:52:25.424Z,49.60
2023-04-02T20:54:53.259Z,49.85
2023-04-02T20:57:21.882Z,49.10
2023-04-02T20:59:48.790Z,49.25
2023-04-02T21:02:15.546Z,49.92
2023-04-02T21:04:42.155Z,50.50
2023-04-02T21:07:08.689Z,50.58
2023-04-02T21:09:35.424Z,51.17
2023-04-02T21:12:01.957Z,50.78
2023-04-02T21:14:31.344Z,52.30
2023-04-02T21:16:57.922Z,55.60
2023-04-02T21:19:24.506Z,55.60
2023-04-02T21:21:51.071Z,55.25
2023-04-02T21:24:17.628Z,56.70
2023-04-02T21:26:46.446Z,57.17
2023-04-02T21:29:13.562Z,55.95
2023-04-02T21:31:41.097Z,56.83
2023-04-02T21:34:09.254Z,59.45
2023-04-02T21:36:39.599Z,58.53
2023-04-02T21:39:12.232Z,58.72
2023-04-02T21:41:41.741Z,56.72
2023-04-02T21:44:10.589Z,58.55
2023-04-02T21:46:39.230Z,58.53
2023-04-02T21:49:08.354Z,58.15
2023-04-02T21:51:37.536Z,58.45
2023-04-02T21:54:04.768Z,59.28
2023-04-02T21:56:34.499Z,59.75
2023-04-02T21:59:02.247Z,58.88
2023-04-02T22:01:32.008Z,54.10
2023-04-02T22:04:01.387Z,55.60
2023-04-02T22:06:30.969Z,54.35
2023-04-02T22:09:00.427Z,54.45
2023-04-02T22:11:33.630Z,54.28
2023-04-02T22:14:02.915Z,55.38
2023-04-02T22:16:31.304Z,56.67
2023-04-02T22:19:01.477Z,56.40
2023-04-02T22:21:32.475Z,55.60
2023-04-02T22:24:01.296Z,55.25
2023-04-02T22:26:28.274Z,57.00
2023-04-02T22:28:54.887Z,55.42
2023-04-02T22:31:25.104Z,60.13
2023-04-02T22:33:53.048Z,56.58
2023-04-02T22:36:20.815Z,51.90
2023-04-02T22:38:47.692Z,54.95
2023-04-02T22:41:17.004Z,57.67
2023-04-02T22:43:44.952Z,57.00
2023-04-02T22:46:14.171Z,60.00
2023-04-02T22:48:41.298Z,56.58
2023-04-02T22:51:09.495Z,58.53
2023-04-02T22:53:36.999Z,54.35
2023-04-02T22:56:10.416Z,56.70
2023-04-02T22:58:37.919Z,55.13
2023-04-02T23:01:11.837Z,58.50
2023-04-02T23:03:38.630Z,58.25
2023-04-02T23:06:07.802Z,57.50
2023-04-02T23:08:35.465Z,57.30
2023-04-02T23:11:10.546Z,54.63
2023-04-02T23:13:38.124Z,54.42
2023-04-02T23:16:07.671Z,51.20
2023-04-02T23:18:35.800Z,49.97
2023-04-02T23:21:02.821Z,48.40
2023-04-02T23:23:31.395Z,43.50
2023-04-02T23:26:04.990Z,41.20
2023-04-02T23:28:31.577Z,40.78
2023-04-02T23:30:58.214Z,43.17
2023-04-02T23:33:24.788Z,44.45
2023-04-02T23:35:51.415Z,46.85
2023-04-02T23:38:18.008Z,50.85
2023-04-02T23:40:44.609Z,59.53
2023-04-02T23:43:11.363Z,53.95
2023-04-02T23:45:38.188Z,42.53
2023-04-02T23:48:05.164Z,45.60
2023-04-02T23:50:31.915Z,45.75
2023-04-02T23:52:58.467Z,46.20
2023-04-02T23:55:25.300Z,48.90
2023-04-02T23:57:52.018Z,49.60
